Time;durP1;ratioP1;P1;durP2;ratioP2;P2;SDS_P1;SDS_P2;PMS_P1;PMS_P2;Temp;Humidity;BMP_temperature;BMP_pressure;BME280_temperature;BME280_humidity;BME280_pressure;Samples;Min_cycle;Max_cycle;Signal;HPM_P1;HPM_P2
2021/07/15 00:01:48;;;;;;;56.47;21.48;;;;;;;16.77;88.78;101535.34;4920389;28;20136;-51
2021/07/15 00:04:14;;;;;;;54.60;21.08;;;;;;;16.75;88.86;101537.09;4926006;28;20077;-48
2021/07/15 00:06:40;;;;;;;63.20;20.73;;;;;;;16.77;88.69;101541.44;4921825;28;20398;-51
2021/07/15 00:09:05;;;;;;;53.90;21.40;;;;;;;16.67;88.74;101538.84;4934085;28;20637;-49
2021/07/15 00:11:34;;;;;;;58.17;21.27;;;;;;;16.67;89.08;101542.34;4916046;28;20035;-51
2021/07/15 00:13:59;;;;;;;54.55;21.83;;;;;;;16.63;89.10;101543.25;4927623;28;20058;-50
2021/07/15 00:16:24;;;;;;;62.70;22.60;;;;;;;16.61;89.29;101543.25;4923431;28;20035;-48
2021/07/15 00:18:50;;;;;;;61.08;22.85;;;;;;;16.65;89.41;101549.38;4928048;28;20527;-51
2021/07/15 00:21:21;;;;;;;58.35;22.48;;;;;;;16.62;89.43;101546.75;4931112;28;20028;-53
2021/07/15 00:23:47;;;;;;;60.17;22.27;;;;;;;16.63;89.39;101557.28;4916801;28;20354;-49
2021/07/15 00:26:13;;;;;;;62.50;22.38;;;;;;;16.59;89.17;101563.41;4917912;28;20019;-52
2021/07/15 00:28:39;;;;;;;59.38;21.92;;;;;;;16.61;89.56;101566.94;4922117;28;20408;-48
2021/07/15 00:31:05;;;;;;;62.53;22.58;;;;;;;16.64;89.53;101552.91;4929039;28;20399;-49
2021/07/15 00:33:31;;;;;;;65.15;22.58;;;;;;;16.60;89.52;101551.13;4932391;28;20458;-51
2021/07/15 00:35:57;;;;;;;55.55;21.88;;;;;;;16.64;89.66;101552.91;4930538;28;20032;-53
2021/07/15 00:38:24;;;;;;;55.50;20.83;;;;;;;16.66;89.38;101544.97;4915484;28;20035;-50
2021/07/15 00:40:49;;;;;;;58.33;22.70;;;;;;;16.66;89.13;101543.22;4903801;28;20075;-54
2021/07/15 00:43:14;;;;;;;60.90;21.05;;;;;;;16.66;89.45;101548.50;4927412;28;20505;-50
2021/07/15 00:45:40;;;;;;;53.80;21.13;;;;;;;16.63;89.29;101559.03;4921166;28;20470;-50
2021/07/15 00:48:05;;;;;;;56.92;20.75;;;;;;;16.64;89.32;101542.38;4927080;28;20495;-49
2021/07/15 00:50:31;;;;;;;53.83;21.08;;;;;;;16.65;89.41;101559.91;4927378;28;20673;-49
2021/07/15 00:52:57;;;;;;;58.85;21.88;;;;;;;16.61;89.23;101552.88;4924337;28;20043;-49
2021/07/15 00:55:36;;;;;;;62.55;21.67;;;;;;;16.66;89.25;101552.88;4911319;28;20030;-51
2021/07/15 00:58:03;;;;;;;56.33;21.48;;;;;;;16.68;89.27;101552.00;4925734;28;20023;-51
2021/07/15 01:00:29;;;;;;;62.20;20.25;;;;;;;16.67;89.28;101547.63;4926008;28;20035;-52
2021/07/15 01:02:56;;;;;;;59.92;21.02;;;;;;;16.66;89.45;101543.22;4906201;28;20449;-52
2021/07/15 01:05:27;;;;;;;56.50;21.38;;;;;;;16.67;88.91;101552.88;4927282;28;20395;-52
2021/07/15 01:07:52;;;;;;;54.30;20.77;;;;;;;16.66;89.23;101537.09;4908586;28;20043;-52
2021/07/15 01:10:26;;;;;;;61.03;19.88;;;;;;;16.66;89.22;101542.34;4923203;28;20339;-51
2021/07/15 01:13:14;;;;;;;52.47;20.05;;;;;;;16.63;89.19;101548.50;4914580;28;20609;-52
2021/07/15 01:16:05;;;;;;;55.83;20.83;;;;;;;16.69;89.12;101553.78;4929884;28;20035;-49
2021/07/15 01:18:37;;;;;;;48.65;20.20;;;;;;;16.66;88.85;101560.78;4910905;28;20459;-50
2021/07/15 01:21:33;;;;;;;54.70;20.23;;;;;;;16.67;89.08;101554.63;4925313;28;20061;-48
2021/07/15 01:24:17;;;;;;;60.42;19.40;;;;;;;16.70;89.02;101558.16;4922572;28;20039;-51
2021/07/15 01:26:54;;;;;;;43.97;20.10;;;;;;;16.73;88.87;101554.63;4923486;28;20079;-53
2021/07/15 01:29:45;;;;;;;53.28;18.48;;;;;;;16.73;88.68;101565.16;4908734;28;20206;-54
2021/07/15 01:32:11;;;;;;;54.58;18.67;;;;;;;16.72;88.58;101568.69;4922042;28;20043;-50
2021/07/15 01:34:37;;;;;;;52.83;18.52;;;;;;;16.66;88.77;101568.69;4933665;28;20125;-47
2021/07/15 01:37:04;;;;;;;55.88;19.63;;;;;;;16.60;88.92;101562.53;4930483;28;20753;-48
2021/07/15 01:39:32;;;;;;;45.70;18.75;;;;;;;16.58;89.02;101568.66;4912932;28;20035;-50
2021/07/15 01:42:02;;;;;;;46.47;18.10;;;;;;;16.56;89.16;101560.75;4920519;28;20077;-48
2021/07/15 01:44:29;;;;;;;55.03;18.90;;;;;;;16.60;89.09;101569.56;4905838;28;20028;-50
2021/07/15 01:46:55;;;;;;;49.42;18.45;;;;;;;16.61;89.09;101573.94;4905978;28;20054;-48
2021/07/15 01:49:20;;;;;;;46.38;18.77;;;;;;;16.59;89.39;101565.13;4928052;28;20784;-56
2021/07/15 01:51:46;;;;;;;45.83;18.65;;;;;;;16.63;88.97;101573.09;4907562;28;20050;-47
2021/07/15 01:54:12;;;;;;;48.60;19.27;;;;;;;16.66;89.16;101571.31;4925787;28;20251;-50
2021/07/15 01:56:39;;;;;;;44.08;17.60;;;;;;;16.62;88.94;101568.69;4928438;28;20063;-50
2021/07/15 01:59:08;;;;;;;48.42;19.02;;;;;;;16.55;89.29;101561.63;4910471;28;20074;-54
2021/07/15 02:01:35;;;;;;;53.97;20.17;;;;;;;16.55;88.98;101558.13;4923441;28;20035;-50
2021/07/15 02:04:01;;;;;;;52.90;19.80;;;;;;;16.52;89.32;101561.66;4929893;28;20062;-51
2021/07/15 02:06:27;;;;;;;54.65;21.30;;;;;;;16.54;89.50;101561.63;4910738;28;20118;-49
2021/07/15 02:08:53;;;;;;;48.67;20.60;;;;;;;16.52;89.49;101548.50;4926745;28;20053;-50
2021/07/15 02:11:21;;;;;;;46.28;19.15;;;;;;;16.56;89.27;101544.09;4926383;28;20035;-53
2021/07/15 02:13:47;;;;;;;51.45;18.73;;;;;;;16.57;89.28;101546.72;4926342;28;20046;-50
2021/07/15 02:16:12;;;;;;;49.42;19.75;;;;;;;16.57;89.36;101553.75;4922436;28;20301;-52
2021/07/15 02:18:39;;;;;;;55.15;19.63;;;;;;;16.53;89.47;101539.69;4908621;28;20566;-49
2021/07/15 02:21:05;;;;;;;54.67;20.50;;;;;;;16.54;89.26;101536.19;4910621;28;20034;-53
2021/07/15 02:23:30;;;;;;;52.80;19.50;;;;;;;16.55;89.47;101537.06;4922903;28;20028;-48
2021/07/15 02:25:57;;;;;;;54.67;20.65;;;;;;;16.51;89.37;101537.97;4905115;28;20185;-50
2021/07/15 02:28:26;;;;;;;57.88;21.30;;;;;;;16.54;89.58;101533.56;4912744;28;20134;-48
2021/07/15 02:30:56;;;;;;;55.72;20.85;;;;;;;16.50;89.52;101531.81;4907325;28;20074;-49
2021/07/15 02:33:25;;;;;;;56.58;20.05;;;;;;;16.50;89.44;101528.31;4929568;28;20141;-49
2021/07/15 02:35:52;;;;;;;48.40;19.00;;;;;;;16.49;89.47;101526.53;4902308;28;20027;-49
2021/07/15 02:38:22;;;;;;;54.92;20.83;;;;;;;16.43;89.86;101529.19;4933740;28;20034;-49
2021/07/15 02:40:47;;;;;;;54.45;20.55;;;;;;;16.47;89.93;101530.91;4903512;28;20066;-51
2021/07/15 02:43:13;;;;;;;55.67;20.88;;;;;;;16.46;89.61;101530.06;4918163;28;20114;-52
2021/07/15 02:45:38;;;;;;;57.22;20.52;;;;;;;16.50;89.84;101539.72;4908033;28;20042;-50
2021/07/15 02:48:04;;;;;;;55.63;19.85;;;;;;;16.47;89.70;101526.53;4928843;28;20035;-48
2021/07/15 02:50:29;;;;;;;46.05;18.42;;;;;;;16.48;89.56;101527.41;4917368;28;20423;-48
2021/07/15 02:52:56;;;;;;;53.88;19.30;;;;;;;16.46;89.35;101527.44;4925637;28;20039;-48
2021/07/15 02:55:22;;;;;;;50.90;18.98;;;;;;;16.48;89.56;101527.41;4921156;28;20027;-49
2021/07/15 02:58:02;;;;;;;52.72;18.80;;;;;;;16.51;89.72;101527.44;4918627;28;20015;-48
2021/07/15 03:00:34;;;;;;;52.72;19.60;;;;;;;16.46;89.48;101523.94;4924913;28;20040;-51
2021/07/15 03:03:02;;;;;;;51.58;19.48;;;;;;;16.45;89.43;101520.41;4915696;28;20033;-49
2021/07/15 03:05:30;;;;;;;58.10;20.67;;;;;;;16.43;89.35;101522.16;4920450;28;20026;-48
2021/07/15 03:08:20;;;;;;;50.13;19.35;;;;;;;16.38;89.51;101512.50;4933986;28;20475;-49
2021/07/15 03:10:46;;;;;;;47.53;17.63;;;;;;;16.40;89.39;101524.81;4925494;28;20051;-47
2021/07/15 03:13:13;;;;;;;53.92;19.30;;;;;;;16.40;89.41;101529.19;4921849;28;20034;-48
2021/07/15 03:15:40;;;;;;;49.05;17.50;;;;;;;16.39;89.46;101536.22;4918646;28;20031;-51
2021/07/15 03:18:06;;;;;;;47.33;16.77;;;;;;;16.34;89.45;101529.19;4914427;28;20887;-53
2021/07/15 03:20:38;;;;;;;50.25;18.15;;;;;;;16.36;89.32;101522.16;4936212;28;20035;-54
2021/07/15 03:23:07;;;;;;;57.13;17.10;;;;;;;16.43;89.17;101526.53;4912241;28;20387;-52
2021/07/15 03:25:33;;;;;;;52.38;18.40;;;;;;;16.40;89.33;101530.06;4905473;28;20031;-53
2021/07/15 03:27:59;;;;;;;41.03;17.33;;;;;;;16.31;89.48;101534.44;4921541;28;20415;-48
2021/07/15 03:30:26;;;;;;;55.55;18.00;;;;;;;16.32;89.27;101536.19;4909870;28;20049;-53
2021/07/15 03:32:52;;;;;;;49.97;17.30;;;;;;;16.33;89.78;101532.69;4925102;28;20047;-54
2021/07/15 03:35:18;;;;;;;45.00;16.90;;;;;;;16.37;89.06;101529.19;4910079;28;20478;-52
2021/07/15 03:37:45;;;;;;;45.03;17.27;;;;;;;16.34;89.05;101535.34;4901480;28;20023;-50
2021/07/15 03:40:12;;;;;;;48.63;16.40;;;;;;;16.36;89.11;101532.69;4922542;28;20306;-55
2021/07/15 03:42:38;;;;;;;47.45;16.90;;;;;;;16.38;89.00;101538.84;4918867;28;20058;-49
2021/07/15 03:45:05;;;;;;;46.25;16.70;;;;;;;16.35;88.93;101539.69;4915421;28;20031;-50
2021/07/15 03:47:31;;;;;;;49.95;17.48;;;;;;;16.43;88.67;101548.47;4922087;28;20504;-52
2021/07/15 03:49:57;;;;;;;46.15;17.52;;;;;;;16.40;88.69;101547.63;4902911;28;20020;-51
2021/07/15 03:52:23;;;;;;;44.67;16.92;;;;;;;16.45;88.23;101551.13;4900335;28;20042;-48
2021/07/15 03:54:50;;;;;;;42.92;17.08;;;;;;;16.44;88.02;101542.34;4902892;28;20040;-52
2021/07/15 03:57:18;;;;;;;42.55;16.63;;;;;;;16.44;88.15;101546.72;4921465;28;20027;-50
2021/07/15 03:59:51;;;;;;;42.88;16.05;;;;;;;16.47;87.79;101551.97;4913177;28;20454;-49
2021/07/15 04:02:23;;;;;;;48.15;17.35;;;;;;;16.48;87.66;101544.09;4903643;28;20158;-53
2021/07/15 04:04:50;;;;;;;45.45;17.15;;;;;;;16.49;87.58;101552.88;4906375;28;20272;-51
2021/07/15 04:07:18;;;;;;;42.13;15.70;;;;;;;16.52;87.06;101551.13;4920169;28;20116;-47
2021/07/15 04:09:44;;;;;;;47.95;17.13;;;;;;;16.56;87.25;101563.41;4924312;28;20046;-50
2021/07/15 04:12:10;;;;;;;41.88;17.23;;;;;;;16.59;86.74;101551.97;4917310;28;20868;-50
2021/07/15 04:14:39;;;;;;;45.42;16.67;;;;;;;16.63;86.69;101548.50;4910125;28;20282;-50
2021/07/15 04:17:09;;;;;;;38.80;16.42;;;;;;;16.68;86.49;101551.13;4917500;28;20595;-53
2021/07/15 04:19:36;;;;;;;47.38;17.55;;;;;;;16.69;86.13;101560.78;4909046;28;20035;-50
2021/07/15 04:22:03;;;;;;;44.00;17.02;;;;;;;16.71;86.28;101562.53;4906272;28;20123;-50
2021/07/15 04:24:29;;;;;;;54.03;18.35;;;;;;;16.70;86.18;101559.91;4922115;28;20149;-49
2021/07/15 04:26:54;;;;;;;43.65;17.48;;;;;;;16.72;85.93;101573.94;4907876;28;20059;-49
2021/07/15 04:29:20;;;;;;;42.78;18.00;;;;;;;16.71;85.79;101569.59;4910556;28;20031;-49
2021/07/15 04:31:51;;;;;;;42.35;18.02;;;;;;;16.74;86.00;101569.56;4938762;28;20027;-50
2021/07/15 04:34:18;;;;;;;38.22;16.60;;;;;;;16.75;85.69;101580.09;4922096;28;20189;-49
2021/07/15 04:36:44;;;;;;;39.78;16.38;;;;;;;16.69;85.68;101577.47;4905380;28;20034;-50
2021/07/15 04:39:09;;;;;;;38.70;16.38;;;;;;;16.72;85.78;101579.22;4913411;28;20027;-49
2021/07/15 04:41:35;;;;;;;41.03;16.65;;;;;;;16.73;85.59;101575.69;4906032;28;20168;-48
2021/07/15 04:44:00;;;;;;;45.13;17.58;;;;;;;16.70;85.80;101581.88;4909909;28;20057;-49
2021/07/15 04:46:26;;;;;;;48.45;17.58;;;;;;;16.70;85.59;101591.50;4909700;28;20067;-48
2021/07/15 04:48:52;;;;;;;47.90;17.83;;;;;;;16.72;85.65;101592.38;4922893;28;20039;-53
2021/07/15 04:51:18;;;;;;;49.03;17.05;;;;;;;16.66;85.94;101595.88;4923953;28;20023;-51
2021/07/15 04:53:47;;;;;;;45.38;16.98;;;;;;;16.65;85.78;101593.28;4906526;28;20448;-50
2021/07/15 04:56:14;;;;;;;44.92;16.70;;;;;;;16.61;85.83;101608.19;4921617;28;20039;-49
2021/07/15 04:58:42;;;;;;;51.55;17.55;;;;;;;16.63;85.88;101603.81;4922501;28;20302;-49
2021/07/15 05:01:11;;;;;;;49.88;17.42;;;;;;;16.65;85.92;101604.66;4926432;28;20050;-49
2021/07/15 05:03:37;;;;;;;44.30;16.52;;;;;;;16.66;85.78;101601.16;4921932;28;20032;-48
2021/07/15 05:06:07;;;;;;;37.47;15.18;;;;;;;16.74;85.55;101598.53;4927168;28;20475;-54
2021/07/15 05:08:33;;;;;;;34.83;14.98;;;;;;;16.79;85.24;101599.41;4914944;28;20498;-51
2021/07/15 05:10:59;;;;;;;31.17;14.32;;;;;;;16.79;85.05;101599.41;4920352;28;20035;-51
2021/07/15 05:13:24;;;;;;;41.85;14.98;;;;;;;16.84;85.14;101611.69;4920294;28;20034;-49
2021/07/15 05:15:50;;;;;;;37.63;15.05;;;;;;;16.85;84.74;101597.63;4919352;28;20046;-53
2021/07/15 05:18:16;;;;;;;41.03;15.02;;;;;;;16.83;84.86;101595.91;4924790;28;20472;-49
2021/07/15 05:20:42;;;;;;;37.72;14.65;;;;;;;16.88;84.70;101596.78;4923789;28;20027;-51
2021/07/15 05:23:07;;;;;;;31.33;14.50;;;;;;;16.84;84.31;101595.00;4925020;28;20442;-48
2021/07/15 05:25:32;;;;;;;39.50;14.40;;;;;;;16.83;84.18;101601.16;4919019;28;20031;-51
2021/07/15 05:27:58;;;;;;;32.25;13.65;;;;;;;16.90;84.01;101606.41;4921694;28;20586;-51
2021/07/15 05:30:23;;;;;;;38.97;14.57;;;;;;;16.89;83.65;101616.97;4926072;28;20035;-51
2021/07/15 05:32:48;;;;;;;41.95;12.95;;;;;;;16.92;83.59;101604.66;4938500;28;20114;-51
2021/07/15 05:35:14;;;;;;;36.13;13.38;;;;;;;16.95;83.81;101616.97;4925012;28;20032;-51
2021/07/15 05:37:40;;;;;;;38.25;13.55;;;;;;;16.94;82.88;101616.09;4915993;28;20035;-53
2021/07/15 05:40:06;;;;;;;37.15;13.18;;;;;;;16.87;83.16;101610.81;4923578;28;20097;-51
2021/07/15 05:42:32;;;;;;;38.83;12.75;;;;;;;16.83;82.81;101604.66;4920300;28;20032;-52
2021/07/15 05:44:57;;;;;;;28.17;12.15;;;;;;;16.85;83.30;101613.44;4911994;28;20041;-49
2021/07/15 05:47:23;;;;;;;34.03;12.65;;;;;;;16.91;83.33;101607.28;4918634;28;20024;-50
2021/07/15 05:49:48;;;;;;;32.40;13.73;;;;;;;16.92;83.40;101602.03;4923678;28;20031;-53
2021/07/15 05:52:13;;;;;;;27.95;12.05;;;;;;;16.94;82.77;101607.31;4931252;28;20436;-49
2021/07/15 05:54:39;;;;;;;28.90;12.13;;;;;;;16.95;82.58;101604.66;4930392;28;20114;-50
2021/07/15 05:57:05;;;;;;;27.95;11.68;;;;;;;16.95;82.45;101609.06;4923719;28;20027;-52
2021/07/15 05:59:32;;;;;;;30.20;11.85;;;;;;;16.98;82.49;101609.91;4906906;28;20407;-48
2021/07/15 06:01:58;;;;;;;29.80;12.30;;;;;;;16.93;82.77;101611.69;4920481;28;20046;-50
2021/07/15 06:04:24;;;;;;;35.92;12.73;;;;;;;16.92;83.18;101617.81;4922493;28;20031;-49
2021/07/15 06:06:49;;;;;;;35.03;12.98;;;;;;;16.91;83.00;101623.97;4922812;28;20036;-53
2021/07/15 06:09:15;;;;;;;39.97;13.15;;;;;;;16.93;82.96;101627.50;4922278;28;20567;-48
2021/07/15 06:11:40;;;;;;;39.53;13.63;;;;;;;16.92;83.22;101627.47;4917342;28;20569;-50
2021/07/15 06:14:06;;;;;;;33.97;12.68;;;;;;;17.00;82.93;101628.38;4922519;28;20071;-47
2021/07/15 06:16:31;;;;;;;33.40;13.75;;;;;;;16.96;82.85;101621.31;4929335;28;20023;-49
2021/07/15 06:18:56;;;;;;;36.88;12.95;;;;;;;16.90;82.60;101619.56;4925799;28;20071;-50
2021/07/15 06:21:22;;;;;;;31.27;13.00;;;;;;;16.92;82.22;101625.72;4928290;28;20094;-52
2021/07/15 06:23:47;;;;;;;33.78;12.82;;;;;;;16.96;82.22;101634.50;4926403;28;20063;-49
2021/07/15 06:26:12;;;;;;;26.33;12.00;;;;;;;17.07;81.83;101635.38;4920194;28;20039;-48
2021/07/15 06:28:38;;;;;;;31.63;12.20;;;;;;;17.09;81.68;101632.72;4916343;28;20604;-50
2021/07/15 06:31:04;;;;;;;29.02;12.02;;;;;;;17.23;80.67;101631.84;4925010;28;20037;-54
2021/07/15 06:33:30;;;;;;;31.88;12.02;;;;;;;17.35;80.74;101634.44;4915123;28;20042;-51
2021/07/15 06:35:56;;;;;;;24.60;11.45;;;;;;;17.46;80.77;101642.31;4930707;28;20023;-50
2021/07/15 06:38:23;;;;;;;32.70;12.48;;;;;;;17.44;80.50;101641.47;4940916;28;20865;-50
2021/07/15 06:40:53;;;;;;;27.85;11.45;;;;;;;17.44;80.27;101639.69;4923091;28;20490;-53
2021/07/15 06:43:19;;;;;;;32.95;12.65;;;;;;;17.37;80.54;101642.38;4919276;28;20260;-48
2021/07/15 06:45:44;;;;;;;32.03;12.38;;;;;;;17.39;80.70;101637.94;4921373;28;20456;-48
2021/07/15 06:48:10;;;;;;;35.05;13.10;;;;;;;17.26;80.77;101639.72;4928730;28;20062;-49
2021/07/15 06:50:35;;;;;;;29.77;12.05;;;;;;;17.30;80.73;101649.41;4921684;28;20490;-50
2021/07/15 06:53:01;;;;;;;29.27;11.88;;;;;;;17.32;80.60;101647.63;4918666;28;20143;-51
2021/07/15 06:55:27;;;;;;;25.05;11.52;;;;;;;17.27;79.99;101648.50;4921832;28;20038;-51
2021/07/15 06:57:52;;;;;;;28.98;12.30;;;;;;;17.35;80.45;101658.16;4903583;28;20475;-53
2021/07/15 07:00:18;;;;;;;28.27;11.93;;;;;;;17.28;79.75;101645.88;4923548;28;20491;-51
2021/07/15 07:02:45;;;;;;;28.42;11.75;;;;;;;17.31;79.69;101664.34;4925113;28;20073;-51
2021/07/15 07:05:12;;;;;;;24.38;11.27;;;;;;;17.36;79.91;101662.56;4921781;28;20024;-48
2021/07/15 07:07:37;;;;;;;30.52;12.07;;;;;;;17.36;79.75;101664.31;4922309;28;20035;-53
2021/07/15 07:10:05;;;;;;;33.92;11.48;;;;;;;17.42;79.24;101669.59;4922018;28;20995;-52
2021/07/15 07:12:31;;;;;;;27.63;11.20;;;;;;;17.36;79.72;101674.88;4900483;28;20039;-55
2021/07/15 07:14:56;;;;;;;29.88;11.68;;;;;;;17.38;79.72;101679.22;4920097;28;20421;-55
2021/07/15 07:17:22;;;;;;;29.13;11.13;;;;;;;17.26;79.89;101675.78;4921861;28;20031;-55
2021/07/15 07:19:47;;;;;;;30.90;11.80;;;;;;;17.31;79.36;101684.53;4918668;28;20565;-54
2021/07/15 07:22:13;;;;;;;25.27;11.35;;;;;;;17.39;79.69;101675.72;4921337;28;20141;-50
2021/07/15 07:24:38;;;;;;;33.80;11.93;;;;;;;17.48;79.55;101692.41;4922329;28;20043;-49
2021/07/15 07:27:03;;;;;;;29.00;11.02;;;;;;;17.44;79.34;101683.66;4920690;28;20044;-50
2021/07/15 07:29:29;;;;;;;28.13;10.75;;;;;;;17.45;79.31;101693.28;4920986;28;20132;-52
2021/07/15 07:31:54;;;;;;;29.73;11.20;;;;;;;17.55;78.88;101697.69;4917887;28;20074;-52
2021/07/15 07:34:20;;;;;;;27.85;10.55;;;;;;;17.51;78.40;101695.91;4918976;28;20038;-51
2021/07/15 07:36:45;;;;;;;26.10;10.48;;;;;;;17.59;78.53;101694.16;4919132;28;20161;-51
2021/07/15 07:39:11;;;;;;;29.00;10.75;;;;;;;17.64;78.57;101699.44;4902449;28;20031;-52
2021/07/15 07:41:37;;;;;;;28.98;11.13;;;;;;;17.73;78.61;101695.03;4915295;28;21102;-52
2021/07/15 07:44:03;;;;;;;26.58;9.82;;;;;;;17.79;77.74;101692.38;4928241;28;20535;-53
2021/07/15 07:46:28;;;;;;;31.02;10.88;;;;;;;17.92;77.27;101700.25;4922721;28;20035;-49
2021/07/15 07:48:54;;;;;;;30.20;10.48;;;;;;;17.91;76.79;101693.22;4918609;28;20342;-52
2021/07/15 07:51:19;;;;;;;25.08;10.35;;;;;;;18.10;76.92;101702.81;4917836;28;20181;-50
2021/07/15 07:53:45;;;;;;;25.40;9.57;;;;;;;18.42;76.65;101694.72;4925273;28;20124;-50
2021/07/15 07:56:11;;;;;;;27.13;10.00;;;;;;;18.73;75.39;101703.34;4920901;28;20574;-49
2021/07/15 07:58:36;;;;;;;27.80;9.45;;;;;;;18.56;74.50;101699.06;4920283;28;20073;-55
2021/07/15 08:01:03;;;;;;;23.77;9.15;;;;;;;18.57;74.92;101702.59;4922191;28;20118;-51
2021/07/15 08:03:28;;;;;;;24.23;9.27;;;;;;;18.81;74.45;101693.59;4926528;28;20039;-50
2021/07/15 08:05:55;;;;;;;20.65;9.15;;;;;;;18.68;74.42;101702.50;4924345;28;20059;-51
2021/07/15 08:08:21;;;;;;;20.83;9.52;;;;;;;18.46;74.59;101696.47;4919236;28;20039;-49
2021/07/15 08:10:47;;;;;;;28.33;10.52;;;;;;;18.41;74.92;101711.44;4923089;28;20392;-47
2021/07/15 08:13:13;;;;;;;29.35;9.82;;;;;;;18.52;75.47;101709.63;4921853;28;20475;-51
2021/07/15 08:15:38;;;;;;;25.13;10.00;;;;;;;18.54;74.29;101711.34;4920033;28;20159;-50
2021/07/15 08:18:04;;;;;;;27.77;9.70;;;;;;;18.69;74.47;101718.34;4928637;28;20483;-52
2021/07/15 08:20:29;;;;;;;27.55;9.77;;;;;;;18.82;73.61;101721.78;4913866;28;20032;-49
2021/07/15 08:22:54;;;;;;;22.15;9.82;;;;;;;18.78;74.01;101733.28;4930819;28;20039;-50
2021/07/15 08:25:20;;;;;;;21.45;8.77;;;;;;;18.82;73.89;101729.72;4930573;28;20542;-53
2021/07/15 08:27:49;;;;;;;22.00;9.32;;;;;;;18.69;73.65;101728.91;4927075;28;20086;-55
2021/07/15 08:30:15;;;;;;;24.23;9.60;;;;;;;18.82;73.77;101740.28;4904071;28;20031;-55
2021/07/15 08:32:41;;;;;;;22.25;9.50;;;;;;;18.96;73.76;101733.16;4917846;28;20031;-51
2021/07/15 08:35:07;;;;;;;20.52;9.43;;;;;;;18.64;73.99;101739.50;4923494;28;20125;-52
2021/07/15 08:37:32;;;;;;;23.67;9.40;;;;;;;18.78;74.37;101733.28;4923356;28;20036;-50
2021/07/15 08:39:58;;;;;;;18.70;9.10;;;;;;;19.08;73.36;101732.16;4928887;28;20105;-48
2021/07/15 08:42:24;;;;;;;20.33;9.77;;;;;;;19.05;72.83;101749.78;4917913;28;20476;-51
2021/07/15 08:44:50;;;;;;;22.20;9.23;;;;;;;18.69;73.06;101731.56;4906773;28;20184;-54
2021/07/15 08:47:16;;;;;;;17.90;9.10;;;;;;;18.88;74.05;101734.94;4904799;28;20403;-52
2021/07/15 08:49:41;;;;;;;21.02;9.02;;;;;;;18.97;73.65;101745.44;4927236;28;20118;-51
2021/07/15 08:52:07;;;;;;;23.58;9.43;;;;;;;18.92;73.19;101747.25;4924638;28;20035;-49
2021/07/15 08:54:47;;;;;;;20.42;9.20;;;;;;;18.80;73.21;101744.69;4916379;28;20238;-52
2021/07/15 08:57:13;;;;;;;22.65;10.15;;;;;;;18.78;73.14;101744.72;4936240;28;20029;-49
2021/07/15 08:59:38;;;;;;;26.42;9.40;;;;;;;18.82;73.19;101746.44;4918145;28;20500;-52
2021/07/15 09:02:04;;;;;;;24.08;9.55;;;;;;;18.75;73.11;101754.41;4927898;28;20540;-51
2021/07/15 09:04:29;;;;;;;23.10;9.70;;;;;;;18.63;73.86;101763.28;4919401;28;20020;-52
2021/07/15 09:06:56;;;;;;;24.85;10.73;;;;;;;18.23;74.81;101763.47;4928889;28;20550;-52
2021/07/15 09:09:22;;;;;;;22.85;10.23;;;;;;;18.15;75.51;101773.16;4910488;28;20023;-52
2021/07/15 09:11:47;;;;;;;25.33;10.77;;;;;;;18.22;75.35;101768.75;4909748;28;20132;-50
2021/07/15 09:14:16;;;;;;;27.88;11.32;;;;;;;18.15;75.35;101780.19;4915450;28;20557;-49
2021/07/15 09:17:10;;;;;;;27.30;10.55;;;;;;;18.16;75.31;101776.69;4902721;28;20031;-52
2021/07/15 09:19:38;;;;;;;24.85;10.98;;;;;;;18.08;76.02;101779.34;4914744;28;20043;-50
2021/07/15 09:22:14;;;;;;;23.83;10.68;;;;;;;18.19;75.92;101777.53;4905598;28;20023;-49
2021/07/15 09:24:44;;;;;;;25.02;9.73;;;;;;;18.40;75.40;101787.13;4919941;28;20471;-50
2021/07/15 09:27:13;;;;;;;21.98;10.63;;;;;;;18.47;74.60;101793.28;4913245;28;20057;-52
2021/07/15 09:29:38;;;;;;;25.52;10.75;;;;;;;18.51;74.26;101779.16;4911455;28;20032;-54
2021/07/15 09:32:04;;;;;;;25.38;9.93;;;;;;;18.36;75.04;101800.38;4933515;28;21005;-51
2021/07/15 09:34:32;;;;;;;21.42;10.68;;;;;;;18.51;74.62;101779.16;4917303;28;20045;-52
2021/07/15 09:36:58;;;;;;;23.63;10.30;;;;;;;18.44;74.27;101788.00;4905600;28;20040;-53
2021/07/15 09:39:25;;;;;;;19.98;10.00;;;;;;;18.66;74.46;101786.19;4915152;28;20453;-53
2021/07/15 09:42:20;;;;;;;27.13;10.07;;;;;;;18.81;74.17;101779.03;4922648;28;20118;-54
2021/07/15 09:44:49;;;;;;;;;;;;;;;18.87;73.36;101789.56;4901112;28;20622;-49
2021/07/15 09:47:35;;;;;;;23.38;10.00;;;;;;;18.80;73.50;101782.56;4907136;28;20345;-52
2021/07/15 09:50:03;;;;;;;21.08;9.85;;;;;;;18.80;73.41;101790.47;4923436;28;20061;-49
2021/07/15 09:52:29;;;;;;;21.83;9.60;;;;;;;18.97;73.56;101793.00;4920318;28;20023;-52
2021/07/15 09:55:24;;;;;;;22.50;9.75;;;;;;;18.69;73.55;101789.66;4911191;28;20044;-53
2021/07/15 09:58:07;;;;;;;21.95;10.20;;;;;;;18.61;73.84;101791.47;4921728;28;20035;-52
2021/07/15 10:00:38;;;;;;;21.88;10.27;;;;;;;18.74;73.60;101793.16;4910756;28;20039;-54
2021/07/15 10:03:09;;;;;;;23.38;9.77;;;;;;;18.60;73.92;101797.66;4925994;28;20653;-50
2021/07/15 10:05:39;;;;;;;22.10;9.85;;;;;;;18.56;74.53;101802.06;4934552;28;20138;-51
2021/07/15 10:08:09;;;;;;;21.42;9.93;;;;;;;18.65;74.04;101809.06;4923415;28;20128;-48
2021/07/15 10:10:36;;;;;;;20.13;9.82;;;;;;;18.56;74.69;101809.09;4906050;28;20043;-54
2021/07/15 10:13:31;;;;;;;28.17;10.23;;;;;;;18.48;74.71;101824.94;4920525;28;20046;-52
2021/07/15 10:16:05;;;;;;;25.90;10.55;;;;;;;18.36;74.91;101810.94;4903990;28;20071;-51
2021/07/15 10:18:43;;;;;;;21.40;10.55;;;;;;;18.37;75.61;101817.94;4921044;28;20025;-53
2021/07/15 10:21:10;;;;;;;18.85;10.43;;;;;;;18.39;75.69;101810.91;4930009;28;20051;-53
2021/07/15 10:23:38;;;;;;;19.15;9.85;;;;;;;18.55;74.50;101809.97;4921882;28;20097;-52
2021/07/15 10:26:05;;;;;;;19.63;9.90;;;;;;;18.72;74.36;101817.84;4924140;28;21054;-52
2021/07/15 10:28:31;;;;;;;22.38;10.18;;;;;;;18.67;73.76;101809.03;4922962;28;20141;-51
2021/07/15 10:31:01;;;;;;;19.55;9.45;;;;;;;18.77;73.73;101808.13;4908591;28;20118;-52
2021/07/15 10:33:28;;;;;;;22.52;9.93;;;;;;;18.90;73.55;101821.25;4918080;28;20114;-48
2021/07/15 10:35:53;;;;;;;23.23;9.95;;;;;;;18.86;73.00;101803.66;4920282;28;20094;-52
2021/07/15 10:38:20;;;;;;;21.00;9.30;;;;;;;19.00;73.06;101815.03;4924605;28;20661;-48
2021/07/15 10:40:48;;;;;;;21.13;10.30;;;;;;;18.98;72.95;101818.56;4924517;28;20484;-48
2021/07/15 10:43:13;;;;;;;21.85;10.70;;;;;;;19.14;73.05;101825.50;4908187;28;20086;-55
2021/07/15 10:45:39;;;;;;;24.70;10.13;;;;;;;18.97;73.13;101825.59;4909072;28;20122;-54
2021/07/15 10:48:05;;;;;;;25.70;10.93;;;;;;;18.69;73.96;101807.28;4918313;28;20063;-56
2021/07/15 10:50:31;;;;;;;18.67;10.10;;;;;;;18.85;73.53;101819.50;4902681;28;20027;-51
2021/07/15 10:52:56;;;;;;;16.42;8.65;;;;;;;19.10;73.00;101812.31;4908980;28;20035;-51
2021/07/15 10:55:25;;;;;;;25.15;10.38;;;;;;;19.14;72.88;101825.50;4906015;28;20040;-53
2021/07/15 10:57:51;;;;;;;18.75;10.38;;;;;;;19.18;72.97;101813.13;4909898;28;20125;-53
2021/07/15 11:00:24;;;;;;;27.73;10.18;;;;;;;19.30;73.60;101828.91;4920502;28;20043;-50
2021/07/15 11:03:08;;;;;;;21.13;10.32;;;;;;;19.31;72.14;101828.03;4920009;28;20089;-49
2021/07/15 11:05:33;;;;;;;;;;;;;;;19.50;72.66;101828.81;4936246;28;20032;-47
2021/07/15 11:07:59;;;;;;;25.20;9.63;;;;;;;19.44;72.82;101822.66;4911753;28;19942;-51
2021/07/15 11:10:25;;;;;;;18.95;8.65;;;;;;;19.57;71.38;101814.63;4926953;28;20036;-55
2021/07/15 11:12:59;;;;;;;23.30;9.48;;;;;;;19.59;70.46;101813.72;4900720;28;20184;-50
2021/07/15 11:15:49;;;;;;;19.63;9.65;;;;;;;19.43;71.03;101820.00;4909527;28;20482;-50